createdAt,value
2018-07-29T00:01:11.749Z,8.57
2018-07-29T00:03:13.809Z,9.20
2018-07-29T00:05:15.857Z,8.73
2018-07-29T00:07:17.974Z,9.17
2018-07-29T00:09:19.981Z,9.70
2018-07-29T00:11:22.026Z,8.97
2018-07-29T00:13:24.070Z,11.17
2018-07-29T00:15:26.102Z,10.33
2018-07-29T00:17:28.157Z,7.70
2018-07-29T00:19:30.218Z,8.50
2018-07-29T00:21:32.285Z,9.90
2018-07-29T00:23:34.361Z,9.40
2018-07-29T00:25:36.456Z,9.90
2018-07-29T00:27:38.500Z,9.30
2018-07-29T00:29:40.553Z,9.90
2018-07-29T00:31:42.596Z,10.60
2018-07-29T00:33:44.664Z,11.50
2018-07-29T00:35:46.708Z,11.40
2018-07-29T00:37:48.741Z,9.50
2018-07-29T00:39:50.773Z,9.67
2018-07-29T00:41:52.844Z,10.33
2018-07-29T00:43:54.909Z,10.33
2018-07-29T00:45:56.996Z,10.40
2018-07-29T00:47:59.041Z,10.10
2018-07-29T00:50:01.093Z,10.67
2018-07-29T00:52:03.137Z,10.27
2018-07-29T00:54:05.197Z,10.97
2018-07-29T00:56:07.221Z,10.57
2018-07-29T00:58:09.277Z,10.43
2018-07-29T01:00:11.332Z,10.27
2018-07-29T01:02:13.376Z,10.53
2018-07-29T01:04:15.460Z,10.37
2018-07-29T01:06:17.509Z,9.83
2018-07-29T01:08:19.571Z,11.50
2018-07-29T01:10:21.618Z,10.53
2018-07-29T01:12:23.690Z,11.97
2018-07-29T01:14:25.741Z,11.27
2018-07-29T01:16:27.784Z,11.20
2018-07-29T01:18:29.833Z,12.20
2018-07-29T01:20:31.950Z,11.67
2018-07-29T01:22:33.952Z,11.40
2018-07-29T01:24:36.005Z,13.60
2018-07-29T01:29:12.871Z,9.93
2018-07-29T01:31:14.924Z,11.63
2018-07-29T01:33:16.997Z,11.17
2018-07-29T01:35:19.078Z,12.97
2018-07-29T01:37:21.129Z,12.90
2018-07-29T01:39:23.259Z,12.03
2018-07-29T01:41:25.312Z,13.90
2018-07-29T01:43:27.380Z,14.40
2018-07-29T01:45:29.504Z,13.97
2018-07-29T01:47:31.585Z,12.97
2018-07-29T01:49:33.652Z,13.17
2018-07-29T01:51:35.710Z,13.10
2018-07-29T01:53:37.773Z,13.20
2018-07-29T01:55:39.868Z,9.80
2018-07-29T01:57:41.941Z,9.77
2018-07-29T01:59:44.014Z,10.33
2018-07-29T02:01:46.149Z,10.80
2018-07-29T02:03:48.229Z,11.30
2018-07-29T02:05:50.380Z,9.80
2018-07-29T02:07:52.428Z,9.53
2018-07-29T02:09:54.500Z,9.03
2018-07-29T02:11:56.539Z,9.23
2018-07-29T02:13:58.619Z,9.50
2018-07-29T02:16:00.680Z,9.77
2018-07-29T02:18:02.752Z,10.50
2018-07-29T02:20:04.824Z,10.93
2018-07-29T02:22:06.941Z,11.90
2018-07-29T02:24:09.000Z,12.80
2018-07-29T02:26:11.066Z,12.10
2018-07-29T02:28:13.112Z,10.80
2018-07-29T02:30:15.165Z,11.57
2018-07-29T02:32:17.248Z,10.67
2018-07-29T02:34:19.301Z,12.10
2018-07-29T02:36:21.376Z,10.20
2018-07-29T02:38:23.443Z,10.70
2018-07-29T02:40:25.565Z,11.17
2018-07-29T02:42:27.610Z,10.53
2018-07-29T02:44:29.685Z,9.50
2018-07-29T02:46:31.767Z,8.80
2018-07-29T02:48:33.845Z,9.60
2018-07-29T02:50:35.934Z,8.60
2018-07-29T02:52:38.027Z,8.47
2018-07-29T02:54:40.081Z,8.90
2018-07-29T02:56:42.165Z,9.27
2018-07-29T02:58:44.253Z,9.40
2018-07-29T03:00:46.302Z,9.10
2018-07-29T03:02:48.348Z,8.60
2018-07-29T03:04:50.445Z,8.80
2018-07-29T03:06:52.485Z,8.60
2018-07-29T03:08:54.537Z,8.47
2018-07-29T03:10:56.598Z,7.87
2018-07-29T03:12:58.684Z,8.20
2018-07-29T03:15:00.741Z,7.90
2018-07-29T03:17:02.821Z,7.80
2018-07-29T03:19:04.933Z,6.70
2018-07-29T03:21:07.008Z,6.97
2018-07-29T03:23:09.070Z,6.20
2018-07-29T03:25:11.125Z,6.77
2018-07-29T03:27:13.198Z,6.70
2018-07-29T03:29:15.236Z,6.77
2018-07-29T03:31:17.289Z,6.27
2018-07-29T03:33:19.336Z,6.50
2018-07-29T03:35:21.425Z,8.20
2018-07-29T03:37:23.494Z,6.87
2018-07-29T03:39:25.539Z,7.60
2018-07-29T03:41:27.622Z,7.33
2018-07-29T03:43:29.692Z,7.40
2018-07-29T03:45:31.737Z,6.70
2018-07-29T03:47:33.780Z,7.30
2018-07-29T03:49:35.816Z,7.63
2018-07-29T03:51:37.876Z,7.10
2018-07-29T03:53:39.917Z,7.57
2018-07-29T03:55:42.005Z,6.63
2018-07-29T03:57:44.057Z,7.07
2018-07-29T03:59:46.093Z,5.10
2018-07-29T04:01:48.152Z,6.13
2018-07-29T04:03:50.213Z,6.50
2018-07-29T04:05:52.340Z,5.53
2018-07-29T04:07:54.433Z,6.90
2018-07-29T04:09:56.497Z,6.90
2018-07-29T04:11:58.610Z,6.33
2018-07-29T04:14:00.613Z,6.30
2018-07-29T04:16:02.961Z,6.13
2018-07-29T04:18:05.034Z,5.83
2018-07-29T04:20:07.172Z,6.00
2018-07-29T04:22:09.262Z,5.90
2018-07-29T04:24:11.313Z,6.30
2018-07-29T04:26:13.403Z,6.70
2018-07-29T04:28:15.472Z,6.67
2018-07-29T04:30:17.546Z,6.80
2018-07-29T04:32:19.604Z,5.93
2018-07-29T04:34:21.662Z,7.13
2018-07-29T04:36:23.732Z,7.30
2018-07-29T04:38:25.777Z,6.73
2018-07-29T04:40:27.824Z,6.40
2018-07-29T04:42:29.897Z,6.87
2018-07-29T04:44:31.934Z,6.30
2018-07-29T04:46:33.982Z,6.07
2018-07-29T04:48:36.020Z,6.40
2018-07-29T04:50:38.056Z,5.73
2018-07-29T04:52:40.104Z,6.27
2018-07-29T04:54:42.195Z,6.63
2018-07-29T04:56:44.240Z,6.03
2018-07-29T04:58:46.325Z,6.37
2018-07-29T05:00:48.465Z,6.40
2018-07-29T05:02:50.512Z,6.90
2018-07-29T05:04:52.600Z,6.17
2018-07-29T05:06:54.661Z,6.33
2018-07-29T05:08:56.752Z,6.23
2018-07-29T05:10:58.901Z,6.80
2018-07-29T05:13:00.900Z,6.80
2018-07-29T05:15:03.545Z,6.47
2018-07-29T05:17:05.625Z,7.40
2018-07-29T05:19:07.684Z,7.10
2018-07-29T05:21:09.747Z,7.37
2018-07-29T05:23:11.822Z,6.93
2018-07-29T05:25:13.890Z,7.67
2018-07-29T05:27:15.962Z,6.90
2018-07-29T05:29:18.001Z,7.43
2018-07-29T05:31:20.135Z,7.23
2018-07-29T05:33:22.197Z,7.00
2018-07-29T05:35:24.256Z,7.37
2018-07-29T05:37:26.324Z,7.00
2018-07-29T05:39:28.353Z,6.77
2018-07-29T05:41:30.404Z,7.83
2018-07-29T05:43:32.453Z,7.00
2018-07-29T05:45:34.521Z,7.07
2018-07-29T05:47:36.577Z,7.57
2018-07-29T05:49:38.618Z,7.57
2018-07-29T05:51:40.705Z,6.37
2018-07-29T05:53:42.782Z,7.33
2018-07-29T05:55:44.941Z,7.63
2018-07-29T05:57:46.932Z,6.83
2018-07-29T05:59:49.012Z,7.07
2018-07-29T06:01:51.092Z,6.20
2018-07-29T06:03:53.237Z,7.10
2018-07-29T06:08:26.593Z,6.30
2018-07-29T06:10:28.653Z,6.77
2018-07-29T06:12:30.711Z,6.53
